Time;durP1;ratioP1;P1;durP2;ratioP2;P2;SDS_P1;SDS_P2;PMS_P1;PMS_P2;Temp;Humidity;BMP_temperature;BMP_pressure;BME280_temperature;BME280_humidity;BME280_pressure;Samples;Min_cycle;Max_cycle;Signal;HPM_P1;HPM_P2
2021/12/05 00:22:28;;;;;;;11.43;7.07;;;;;;;;;;5019714;28;20042;-77
2021/12/05 00:24:57;;;;;;;11.30;6.25;;;;;;;;;;5037238;28;20053;-77
2021/12/05 00:27:29;;;;;;;10.20;5.50;;;;;;;;;;5036773;28;20049;-77
2021/12/05 00:30:15;;;;;;;13.70;6.13;;;;;;;;;;5028835;28;20052;-78
2021/12/05 00:33:09;;;;;;;9.85;6.13;;;;;;;;;;5025506;28;20099;-77
2021/12/05 00:44:39;;;;;;;12.18;5.70;;;;;;;;;;5014241;28;20049;-78
2021/12/05 00:47:17;;;;;;;10.27;5.18;;;;;;;;;;5056393;28;20049;-77
2021/12/05 01:16:08;;;;;;;12.57;5.05;;;;;;;;;;5035996;28;20049;-77
2021/12/05 01:18:35;;;;;;;11.43;5.45;;;;;;;;;;5035872;28;20057;-76
2021/12/05 01:21:07;;;;;;;8.60;4.78;;;;;;;;;;5035167;28;20056;-77
2021/12/05 01:23:45;;;;;;;10.75;5.43;;;;;;;;;;5049616;28;20053;-76
2021/12/05 01:26:20;;;;;;;14.80;5.88;;;;;;;;;;5035011;28;20117;-76
2021/12/05 01:31:51;;;;;;;12.80;5.70;;;;;;;;;;5046041;28;20052;-78
2021/12/05 01:34:36;;;;;;;9.80;5.75;;;;;;;;;;5035532;28;20068;-77
2021/12/05 01:39:55;;;;;;;11.77;5.47;;;;;;;;;;5054260;28;20057;-77
2021/12/05 01:53:07;;;;;;;9.05;5.03;;;;;;;;;;5044790;28;20049;-76
2021/12/05 02:15:14;;;;;;;9.73;5.10;;;;;;;;;;5053167;28;20479;-77
2021/12/05 02:31:37;;;;;;;7.70;4.57;;;;;;;;;;5033480;28;20064;-75
2021/12/05 02:41:53;;;;;;;12.82;5.45;;;;;;;;;;5033228;28;20136;-76
2021/12/05 02:46:47;;;;;;;9.57;5.80;;;;;;;;;;5034452;28;20144;-76
2021/12/05 02:49:15;;;;;;;13.82;5.50;;;;;;;;;;5017049;28;20447;-77
2021/12/05 02:51:42;;;;;;;13.23;5.68;;;;;;;;;;5034391;28;20088;-77
2021/12/05 02:54:15;;;;;;;11.32;5.50;;;;;;;;;;5034201;28;20046;-77
2021/12/05 02:56:45;;;;;;;8.95;5.32;;;;;;;;;;5034143;28;20095;-76
2021/12/05 03:01:52;;;;;;;9.30;5.03;;;;;;;;;;5033836;28;20056;-78
2021/12/05 03:04:18;;;;;;;11.18;5.80;;;;;;;;;;5035135;28;20081;-76
2021/12/05 03:06:53;;;;;;;9.77;5.38;;;;;;;;;;5034664;28;20049;-77
2021/12/05 03:09:21;;;;;;;10.40;6.10;;;;;;;;;;5038637;28;20445;-78
2021/12/05 03:11:47;;;;;;;13.68;6.50;;;;;;;;;;5036652;28;20053;-77
2021/12/05 03:14:14;;;;;;;15.02;7.05;;;;;;;;;;5036458;28;20056;-77
2021/12/05 03:16:41;;;;;;;12.40;6.63;;;;;;;;;;5053196;28;20045;-76
2021/12/05 03:19:08;;;;;;;14.63;6.63;;;;;;;;;;5035541;28;20056;-76
2021/12/05 03:21:35;;;;;;;11.82;6.57;;;;;;;;;;5036222;28;20056;-76
2021/12/05 03:24:02;;;;;;;11.27;6.20;;;;;;;;;;5031528;28;20049;-76
2021/12/05 03:26:31;;;;;;;12.30;6.95;;;;;;;;;;5041190;28;20048;-78
2021/12/05 03:28:57;;;;;;;9.60;6.47;;;;;;;;;;5036505;28;20460;-78
2021/12/05 03:31:25;;;;;;;11.95;6.63;;;;;;;;;;5041528;28;20050;-78
2021/12/05 03:33:51;;;;;;;13.20;7.70;;;;;;;;;;5020336;28;20486;-76
2021/12/05 03:36:18;;;;;;;11.13;6.72;;;;;;;;;;5057776;28;20049;-77
2021/12/05 03:38:45;;;;;;;11.32;7.10;;;;;;;;;;5040608;28;20080;-76
2021/12/05 03:41:11;;;;;;;12.45;6.68;;;;;;;;;;5040022;28;20126;-77
2021/12/05 03:43:38;;;;;;;14.65;7.28;;;;;;;;;;5057289;28;20056;-76
2021/12/05 03:46:05;;;;;;;11.90;7.03;;;;;;;;;;5040657;28;20091;-76
2021/12/05 03:48:33;;;;;;;15.90;7.90;;;;;;;;;;5040064;28;20064;-76
2021/12/05 03:51:01;;;;;;;13.45;7.30;;;;;;;;;;5004950;28;20114;-75
2021/12/05 03:53:27;;;;;;;17.63;8.20;;;;;;;;;;5037203;28;20107;-77
2021/12/05 03:55:54;;;;;;;12.07;7.25;;;;;;;;;;5019672;28;20042;-76
2021/12/05 03:58:21;;;;;;;15.10;8.65;;;;;;;;;;5037647;28;20044;-75
2021/12/05 04:00:50;;;;;;;15.93;7.90;;;;;;;;;;5039983;28;20440;-77
2021/12/05 04:03:17;;;;;;;12.30;8.18;;;;;;;;;;5003969;28;20085;-77
2021/12/05 04:05:44;;;;;;;15.45;8.93;;;;;;;;;;5049684;28;20045;-76
2021/12/05 04:08:12;;;;;;;11.65;8.20;;;;;;;;;;5057362;28;20144;-75
2021/12/05 04:10:39;;;;;;;13.63;8.10;;;;;;;;;;5035130;28;20045;-76
2021/12/05 04:13:05;;;;;;;17.50;8.35;;;;;;;;;;5019864;28;20480;-76
2021/12/05 04:15:31;;;;;;;17.75;9.43;;;;;;;;;;5037122;28;20060;-76
2021/12/05 04:17:58;;;;;;;15.07;8.73;;;;;;;;;;5037061;28;20088;-78
2021/12/05 04:20:25;;;;;;;17.35;9.38;;;;;;;;;;5055701;28;20044;-77
2021/12/05 04:22:51;;;;;;;17.92;9.85;;;;;;;;;;5039447;28;20063;-76
2021/12/05 04:25:18;;;;;;;15.20;9.40;;;;;;;;;;5039115;28;20457;-76
2021/12/05 04:27:46;;;;;;;21.13;11.05;;;;;;;;;;5038399;28;20164;-76
2021/12/05 04:30:14;;;;;;;14.05;9.32;;;;;;;;;;5054776;28;20076;-78
2021/12/05 04:32:40;;;;;;;20.83;10.20;;;;;;;;;;5046294;28;20045;-76
2021/12/05 04:35:07;;;;;;;17.80;9.85;;;;;;;;;;5021233;28;20053;-76
2021/12/05 04:37:33;;;;;;;19.15;10.10;;;;;;;;;;5019178;28;20064;-76
2021/12/05 04:39:59;;;;;;;17.65;10.77;;;;;;;;;;5019984;28;20099;-77
2021/12/05 04:42:25;;;;;;;24.35;11.30;;;;;;;;;;5021475;28;20504;-76
2021/12/05 04:44:52;;;;;;;19.45;11.23;;;;;;;;;;5035392;28;20535;-78
2021/12/05 04:47:18;;;;;;;19.38;11.20;;;;;;;;;;5036568;28;20049;-76
2021/12/05 04:49:46;;;;;;;22.13;11.57;;;;;;;;;;5035853;28;20049;-76
2021/12/05 04:52:12;;;;;;;20.20;11.63;;;;;;;;;;5036167;28;20053;-77
2021/12/05 04:54:39;;;;;;;18.55;11.13;;;;;;;;;;5018718;28;20053;-77
2021/12/05 04:57:06;;;;;;;18.85;10.77;;;;;;;;;;5044848;28;20049;-75
2021/12/05 04:59:35;;;;;;;25.30;11.13;;;;;;;;;;5056614;28;20132;-78
2021/12/05 05:02:03;;;;;;;16.83;11.40;;;;;;;;;;5047214;28;20041;-77
2021/12/05 05:04:36;;;;;;;24.70;11.18;;;;;;;;;;5035162;28;20120;-76
2021/12/05 05:07:11;;;;;;;21.10;11.45;;;;;;;;;;5035257;28;20441;-76
2021/12/05 05:09:38;;;;;;;20.20;11.18;;;;;;;;;;5035376;28;20121;-77
2021/12/05 05:12:04;;;;;;;18.70;10.98;;;;;;;;;;5018769;28;20111;-77
2021/12/05 05:14:30;;;;;;;26.15;12.18;;;;;;;;;;5035132;28;20146;-77
2021/12/05 05:16:57;;;;;;;24.52;12.50;;;;;;;;;;5039266;28;20472;-77
2021/12/05 05:19:28;;;;;;;24.35;11.07;;;;;;;;;;5043876;28;20045;-77
2021/12/05 05:22:09;;;;;;;20.52;11.50;;;;;;;;;;5034355;28;20385;-77
2021/12/05 05:27:57;;;;;;;22.58;12.18;;;;;;;;;;5035363;28;20107;-77
2021/12/05 05:50:04;;;;;;;20.55;11.68;;;;;;;;;;5038358;28;20140;-77
2021/12/05 05:52:05;;;;;;;16.05;11.45;;;;;;;;;;5020702;28;20053;-76
2021/12/05 05:54:32;;;;;;;28.25;13.10;;;;;;;;;;5043465;28;20092;-78
2021/12/05 05:57:09;;;;;;;20.52;12.60;;;;;;;;;;5034802;28;20136;-76
2021/12/05 05:59:45;;;;;;;21.90;12.57;;;;;;;;;;5024180;28;20347;-77
2021/12/05 06:04:40;;;;;;;20.00;12.63;;;;;;;;;;5038482;28;20072;-77
2021/12/05 06:07:08;;;;;;;23.30;12.85;;;;;;;;;;5054862;28;20091;-76
2021/12/05 06:09:34;;;;;;;19.23;11.88;;;;;;;;;;5054748;28;20057;-78
2021/12/05 06:12:01;;;;;;;28.27;13.48;;;;;;;;;;5055099;28;20125;-76
2021/12/05 06:14:29;;;;;;;24.58;12.88;;;;;;;;;;5054896;28;20053;-76
2021/12/05 06:16:55;;;;;;;23.40;13.00;;;;;;;;;;5054497;28;20049;-76
2021/12/05 06:19:21;;;;;;;23.30;13.77;;;;;;;;;;5037440;28;20448;-77
2021/12/05 06:21:49;;;;;;;30.83;13.20;;;;;;;;;;5020555;28;20191;-77
2021/12/05 06:24:16;;;;;;;23.58;12.95;;;;;;;;;;5038166;28;20056;-76
2021/12/05 06:26:42;;;;;;;22.60;13.07;;;;;;;;;;5046844;28;20042;-77
2021/12/05 06:29:16;;;;;;;26.17;13.98;;;;;;;;;;5034690;28;20049;-77
2021/12/05 06:42:45;;;;;;;23.83;13.15;;;;;;;;;;5018698;28;20096;-76
2021/12/05 06:47:53;;;;;;;23.65;13.38;;;;;;;;;;5034154;28;20046;-76
2021/12/05 06:50:19;;;;;;;26.63;13.38;;;;;;;;;;5040531;28;20049;-76
2021/12/05 06:52:46;;;;;;;20.17;12.75;;;;;;;;;;5053576;28;20053;-76
2021/12/05 06:55:13;;;;;;;21.35;11.43;;;;;;;;;;5036564;28;20121;-76
2021/12/05 06:57:40;;;;;;;22.00;12.57;;;;;;;;;;5052740;28;20052;-75
2021/12/05 07:00:12;;;;;;;25.35;12.98;;;;;;;;;;5053855;28;20441;-75
2021/12/05 07:02:38;;;;;;;23.63;13.40;;;;;;;;;;5036133;28;20064;-77
2021/12/05 07:07:49;;;;;;;20.70;12.02;;;;;;;;;;5032521;28;20377;-77
2021/12/05 07:10:18;;;;;;;22.30;13.07;;;;;;;;;;5033247;28;20422;-77
2021/12/05 07:15:26;;;;;;;22.73;12.65;;;;;;;;;;5050794;28;20520;-76
2021/12/05 07:20:53;;;;;;;23.05;12.15;;;;;;;;;;5054230;28;20049;-76
2021/12/05 07:25:52;;;;;;;21.10;13.18;;;;;;;;;;5052158;28;20446;-77
2021/12/05 07:42:15;;;;;;;21.95;11.57;;;;;;;;;;5033923;28;20136;-77
2021/12/05 07:44:42;;;;;;;22.77;11.52;;;;;;;;;;5052927;28;20049;-77
2021/12/05 07:47:08;;;;;;;20.33;10.98;;;;;;;;;;5019824;28;20092;-77
2021/12/05 07:49:34;;;;;;;17.52;10.65;;;;;;;;;;5052437;28;20072;-78
2021/12/05 07:52:00;;;;;;;20.83;11.15;;;;;;;;;;5034640;28;20052;-76
2021/12/05 07:57:10;;;;;;;20.48;10.32;;;;;;;;;;5035112;28;20060;-76
2021/12/05 08:16:00;;;;;;;22.35;10.38;;;;;;;;;;5035530;28;20488;-76
2021/12/05 08:18:27;;;;;;;20.58;9.98;;;;;;;;;;5036603;28;20060;-77
2021/12/05 08:20:54;;;;;;;19.33;10.50;;;;;;;;;;5056408;28;20053;-77
2021/12/05 08:23:23;;;;;;;18.48;9.90;;;;;;;;;;5039556;28;20052;-78
2021/12/05 08:25:56;;;;;;;19.65;9.77;;;;;;;;;;5021086;28;20051;-75
2021/12/05 08:30:58;;;;;;;17.25;10.73;;;;;;;;;;5019664;28;20073;-75
2021/12/05 08:39:18;;;;;;;19.70;10.35;;;;;;;;;;5052476;28;20056;-77
2021/12/05 09:25:39;;;;;;;19.42;11.00;;;;;;;;;;5046038;28;20068;-76
2021/12/05 10:11:50;;;;;;;14.25;9.27;;;;;;;;;;5050443;28;20063;-75
2021/12/05 10:16:52;;;;;;;17.98;9.63;;;;;;;;;;5051225;28;20467;-76
2021/12/05 10:37:56;;;;;;;15.30;9.65;;;;;;;;;;5034331;28;20110;-78
2021/12/05 10:40:34;;;;;;;15.63;9.65;;;;;;;;;;5034053;28;20052;-77
2021/12/05 10:43:00;;;;;;;14.95;9.88;;;;;;;;;;5033676;28;20054;-77
2021/12/05 10:45:34;;;;;;;17.45;10.07;;;;;;;;;;5026026;28;20400;-77
2021/12/05 10:48:05;;;;;;;17.13;9.75;;;;;;;;;;5019112;28;20055;-77
2021/12/05 10:50:31;;;;;;;19.70;10.02;;;;;;;;;;5017489;28;20061;-77
2021/12/05 10:53:16;;;;;;;17.60;10.27;;;;;;;;;;5008140;28;20422;-77
2021/12/05 10:55:42;;;;;;;17.73;10.57;;;;;;;;;;5054435;28;20053;-77
2021/12/05 10:58:08;;;;;;;16.70;10.02;;;;;;;;;;5026746;28;20076;-77
2021/12/05 11:00:34;;;;;;;21.40;11.32;;;;;;;;;;5028168;28;20049;-76
2021/12/05 11:03:18;;;;;;;18.38;11.02;;;;;;;;;;5033898;28;20111;-77
2021/12/05 11:05:44;;;;;;;18.40;10.90;;;;;;;;;;5018555;28;20435;-76
2021/12/05 11:08:29;;;;;;;22.05;11.00;;;;;;;;;;5033382;28;20056;-76
2021/12/05 11:11:09;;;;;;;18.45;10.80;;;;;;;;;;5039334;28;20037;-76
2021/12/05 11:13:37;;;;;;;20.02;11.27;;;;;;;;;;5053339;28;20049;-77
2021/12/05 11:16:03;;;;;;;17.60;10.60;;;;;;;;;;5034210;28;20369;-81
2021/12/05 11:18:45;;;;;;;20.92;11.60;;;;;;;;;;5032184;28;20342;-81
2021/12/05 11:21:32;;;;;;;20.75;11.15;;;;;;;;;;5053893;28;20056;-78
2021/12/05 11:24:07;;;;;;;18.05;11.73;;;;;;;;;;5019919;28;20056;-77
2021/12/05 11:26:34;;;;;;;22.50;12.20;;;;;;;;;;5053901;28;20049;-79
2021/12/05 11:29:00;;;;;;;20.23;12.00;;;;;;;;;;5036251;28;20045;-78
2021/12/05 11:31:28;;;;;;;21.48;12.02;;;;;;;;;;5019001;28;20045;-77
2021/12/05 11:33:56;;;;;;;20.20;11.27;;;;;;;;;;5053857;28;20045;-78
2021/12/05 11:36:23;;;;;;;18.63;11.15;;;;;;;;;;5018977;28;20497;-78
2021/12/05 11:38:49;;;;;;;19.00;11.20;;;;;;;;;;5019527;28;20045;-78
2021/12/05 11:41:20;;;;;;;20.42;11.30;;;;;;;;;;5004014;28;20053;-79
2021/12/05 11:43:46;;;;;;;18.17;11.10;;;;;;;;;;5046981;28;20057;-82
2021/12/05 11:46:18;;;;;;;18.20;11.02;;;;;;;;;;5053577;28;20063;-80
2021/12/05 11:48:44;;;;;;;20.25;11.98;;;;;;;;;;5036574;28;20075;-79
2021/12/05 11:51:20;;;;;;;18.48;10.77;;;;;;;;;;5016196;28;20040;-76
2021/12/05 11:53:54;;;;;;;17.25;10.93;;;;;;;;;;5048584;28;20101;-77
2021/12/05 11:56:23;;;;;;;18.33;11.25;;;;;;;;;;5037571;28;20060;-78
2021/12/05 11:59:25;;;;;;;19.77;11.55;;;;;;;;;;5039328;28;20063;-77
2021/12/05 12:01:54;;;;;;;16.38;10.48;;;;;;;;;;4959719;28;20051;-76
2021/12/05 12:04:24;;;;;;;16.33;9.93;;;;;;;;;;5022679;28;20060;-76
2021/12/05 12:07:06;;;;;;;18.35;11.05;;;;;;;;;;5037142;28;20061;-77
2021/12/05 12:09:32;;;;;;;16.60;11.15;;;;;;;;;;5036590;28;20128;-77
2021/12/05 12:11:59;;;;;;;16.75;11.10;;;;;;;;;;5036113;28;20141;-78
2021/12/05 12:14:27;;;;;;;19.77;11.85;;;;;;;;;;5036360;28;20045;-77
2021/12/05 12:16:53;;;;;;;16.15;10.68;;;;;;;;;;5036929;28;20124;-77
2021/12/05 12:19:22;;;;;;;23.80;11.60;;;;;;;;;;5036114;28;20049;-77
2021/12/05 12:21:52;;;;;;;17.88;10.45;;;;;;;;;;5036301;28;20081;-77
2021/12/05 12:24:18;;;;;;;18.33;11.48;;;;;;;;;;5037229;28;20046;-77
2021/12/05 12:26:44;;;;;;;19.80;10.63;;;;;;;;;;5035670;28;20049;-78
2021/12/05 12:29:12;;;;;;;20.73;10.75;;;;;;;;;;5045762;28;20044;-77
2021/12/05 12:31:41;;;;;;;16.38;10.35;;;;;;;;;;5042288;28;20469;-77
2021/12/05 12:34:09;;;;;;;16.77;10.10;;;;;;;;;;5020023;28;20064;-77
2021/12/05 12:36:35;;;;;;;16.77;10.07;;;;;;;;;;5036056;28;20136;-77
2021/12/05 12:39:04;;;;;;;14.88;10.13;;;;;;;;;;5035888;28;20060;-78
2021/12/05 12:41:31;;;;;;;19.65;11.13;;;;;;;;;;5042811;28;20063;-78
2021/12/05 12:44:00;;;;;;;17.02;10.10;;;;;;;;;;5046624;28;20057;-76
2021/12/05 12:46:44;;;;;;;16.77;11.07;;;;;;;;;;5036117;28;20053;-77
2021/12/05 12:49:16;;;;;;;15.40;11.23;;;;;;;;;;5030815;28;20052;-77
2021/12/05 12:51:45;;;;;;;21.45;11.27;;;;;;;;;;5054357;28;20045;-77
2021/12/05 12:54:14;;;;;;;22.45;11.60;;;;;;;;;;5021899;28;20120;-77
2021/12/05 12:56:42;;;;;;;18.67;10.80;;;;;;;;;;5038647;28;20472;-78
2021/12/05 12:59:14;;;;;;;16.83;9.95;;;;;;;;;;5030366;28;20084;-78
2021/12/05 13:10:05;;;;;;;17.50;10.50;;;;;;;;;;5018397;28;20050;-77
2021/12/05 13:12:50;;;;;;;16.98;10.10;;;;;;;;;;5018130;28;20060;-77
2021/12/05 13:15:22;;;;;;;19.15;10.23;;;;;;;;;;5043017;28;20200;-77
2021/12/05 13:17:51;;;;;;;15.43;9.50;;;;;;;;;;5018413;28;20045;-77
2021/12/05 13:20:23;;;;;;;15.82;10.63;;;;;;;;;;5018132;28;20055;-76
2021/12/05 13:23:08;;;;;;;19.88;10.40;;;;;;;;;;5035531;28;20059;-78
2021/12/05 13:25:54;;;;;;;14.93;9.73;;;;;;;;;;5017953;28;20405;-77
2021/12/05 13:28:33;;;;;;;16.10;10.13;;;;;;;;;;5011131;28;20096;-77
2021/12/05 13:31:00;;;;;;;16.55;10.02;;;;;;;;;;5024561;28;20120;-77
2021/12/05 13:33:28;;;;;;;16.15;10.10;;;;;;;;;;5035168;28;20073;-76
2021/12/05 13:35:58;;;;;;;17.73;9.68;;;;;;;;;;5035344;28;20073;-78
2021/12/05 13:38:32;;;;;;;19.25;10.30;;;;;;;;;;5035453;28;20064;-76
2021/12/05 13:41:19;;;;;;;20.20;9.82;;;;;;;;;;5018045;28;20049;-77
2021/12/05 13:43:59;;;;;;;17.20;9.60;;;;;;;;;;5034671;28;20050;-77
2021/12/05 13:46:39;;;;;;;19.55;9.82;;;;;;;;;;5033077;28;20064;-76
2021/12/05 13:49:24;;;;;;;15.93;9.45;;;;;;;;;;5039873;28;20056;-74
2021/12/05 13:51:50;;;;;;;16.83;9.35;;;;;;;;;;5020747;28;20372;-77
2021/12/05 13:54:24;;;;;;;15.80;10.38;;;;;;;;;;5017784;28;20057;-77
2021/12/05 13:57:10;;;;;;;19.20;9.90;;;;;;;;;;5035082;28;20049;-77
2021/12/05 13:59:37;;;;;;;18.55;9.75;;;;;;;;;;5017929;28;20126;-77
2021/12/05 14:02:04;;;;;;;15.73;10.00;;;;;;;;;;5036181;28;20484;-77
2021/12/05 14:04:34;;;;;;;14.68;9.27;;;;;;;;;;5043954;28;20120;-79
2021/12/05 14:07:05;;;;;;;14.82;9.35;;;;;;;;;;5036549;28;20045;-77
2021/12/05 14:09:34;;;;;;;15.90;9.82;;;;;;;;;;5038987;28;20049;-76
2021/12/05 14:12:06;;;;;;;17.95;9.85;;;;;;;;;;5038208;28;21282;-76
2021/12/05 14:14:34;;;;;;;18.02;9.95;;;;;;;;;;5035792;28;20056;-76
2021/12/05 14:17:01;;;;;;;17.40;10.23;;;;;;;;;;5017307;28;20060;-76
2021/12/05 14:19:30;;;;;;;14.30;9.50;;;;;;;;;;5034619;28;20088;-77
2021/12/05 14:21:57;;;;;;;17.48;10.65;;;;;;;;;;5018769;28;20084;-77
2021/12/05 14:24:25;;;;;;;18.15;10.50;;;;;;;;;;5038989;28;20048;-77
2021/12/05 14:26:54;;;;;;;18.15;10.32;;;;;;;;;;5017639;28;20049;-77
2021/12/05 14:29:21;;;;;;;15.25;10.60;;;;;;;;;;5016948;28;20049;-78
2021/12/05 14:31:52;;;;;;;16.13;10.27;;;;;;;;;;5025004;28;20140;-77
2021/12/05 14:34:19;;;;;;;15.98;10.30;;;;;;;;;;5026020;28;20053;-76
2021/12/05 14:36:48;;;;;;;17.98;10.70;;;;;;;;;;5052121;28;20482;-77
2021/12/05 14:39:14;;;;;;;18.83;11.40;;;;;;;;;;5019663;28;20368;-78
2021/12/05 14:41:41;;;;;;;17.38;11.02;;;;;;;;;;5035088;28;20047;-76
2021/12/05 14:44:08;;;;;;;18.20;11.25;;;;;;;;;;5030280;28;20081;-76
2021/12/05 14:46:34;;;;;;;18.10;10.75;;;;;;;;;;5044290;28;20053;-76
2021/12/05 14:49:02;;;;;;;34.10;15.68;;;;;;;;;;5040755;28;20053;-76
2021/12/05 14:51:33;;;;;;;19.38;12.60;;;;;;;;;;5033271;28;20068;-76
2021/12/05 14:53:59;;;;;;;18.90;11.88;;;;;;;;;;5034266;28;20049;-77
2021/12/05 14:56:30;;;;;;;16.23;11.00;;;;;;;;;;5033066;28;20045;-77
2021/12/05 14:59:02;;;;;;;20.70;11.93;;;;;;;;;;5017182;28;20045;-75
2021/12/05 15:01:29;;;;;;;19.17;11.07;;;;;;;;;;5034242;28;20057;-76
2021/12/05 15:03:55;;;;;;;16.23;11.15;;;;;;;;;;5034096;28;20057;-77
2021/12/05 15:06:30;;;;;;;21.98;12.32;;;;;;;;;;5032983;28;20085;-77
2021/12/05 15:08:56;;;;;;;18.50;11.65;;;;;;;;;;5033635;28;20075;-78
2021/12/05 15:11:22;;;;;;;19.83;11.60;;;;;;;;;;5040276;28;20052;-76
2021/12/05 15:13:48;;;;;;;19.77;11.90;;;;;;;;;;5054153;28;20052;-77
2021/12/05 15:16:14;;;;;;;19.30;11.55;;;;;;;;;;5052936;28;20053;-76
2021/12/05 15:18:41;;;;;;;20.98;12.68;;;;;;;;;;5053193;28;20090;-76
2021/12/05 15:21:07;;;;;;;20.60;11.35;;;;;;;;;;5045396;28;20106;-76
2021/12/05 15:23:35;;;;;;;21.45;12.55;;;;;;;;;;5033522;28;20781;-77
2021/12/05 15:26:03;;;;;;;20.75;11.98;;;;;;;;;;5035314;28;20354;-77
2021/12/05 15:28:29;;;;;;;20.05;12.23;;;;;;;;;;5054800;28;20080;-83
2021/12/05 15:30:55;;;;;;;21.15;12.77;;;;;;;;;;5057874;28;20040;-76
2021/12/05 15:33:22;;;;;;;20.67;13.30;;;;;;;;;;5052915;28;20132;-77
2021/12/05 15:35:50;;;;;;;20.60;12.15;;;;;;;;;;5036781;28;20071;-78
2021/12/05 15:38:23;;;;;;;22.42;12.20;;;;;;;;;;5057010;28;20049;-77
2021/12/05 15:40:50;;;;;;;20.08;12.20;;;;;;;;;;5049316;28;20073;-76
2021/12/05 15:43:18;;;;;;;19.35;13.00;;;;;;;;;;5037367;28;20116;-76
2021/12/05 15:45:45;;;;;;;21.35;13.80;;;;;;;;;;5020245;28;20448;-77
2021/12/05 15:48:11;;;;;;;20.80;13.32;;;;;;;;;;5020394;28;20076;-75
2021/12/05 15:50:39;;;;;;;19.45;13.52;;;;;;;;;;5020002;28;20149;-77
2021/12/05 15:53:07;;;;;;;19.95;13.57;;;;;;;;;;5020819;28;20050;-76
2021/12/05 15:55:35;;;;;;;19.98;12.93;;;;;;;;;;5037187;28;20055;-77
2021/12/05 15:58:07;;;;;;;21.67;13.68;;;;;;;;;;5023378;28;20449;-77
2021/12/05 16:00:39;;;;;;;22.35;13.63;;;;;;;;;;5029990;28;20048;-77
2021/12/05 16:03:06;;;;;;;23.08;15.48;;;;;;;;;;5036476;28;20132;-76
2021/12/05 16:05:33;;;;;;;21.27;14.15;;;;;;;;;;5054890;28;20369;-78
2021/12/05 16:08:07;;;;;;;21.08;14.38;;;;;;;;;;5039926;28;20053;-77
2021/12/05 16:10:34;;;;;;;24.83;14.45;;;;;;;;;;5029451;28;20042;-77
2021/12/05 16:13:07;;;;;;;21.92;14.23;;;;;;;;;;5042236;28;20044;-77
2021/12/05 16:15:34;;;;;;;25.33;14.40;;;;;;;;;;5038866;28;20092;-77
2021/12/05 16:18:01;;;;;;;21.33;13.70;;;;;;;;;;5019458;28;20081;-77
2021/12/05 16:20:29;;;;;;;19.67;12.85;;;;;;;;;;5037433;28;20060;-77
2021/12/05 16:23:13;;;;;;;17.63;13.18;;;;;;;;;;5019456;28;20057;-76
2021/12/05 16:25:58;;;;;;;18.38;12.57;;;;;;;;;;5036386;28;20045;-76
2021/12/05 16:28:26;;;;;;;17.88;13.02;;;;;;;;;;5019677;28;20085;-78
2021/12/05 16:30:56;;;;;;;20.52;12.93;;;;;;;;;;5033845;28;20129;-77
2021/12/05 16:33:23;;;;;;;19.05;12.23;;;;;;;;;;5047961;28;20072;-76
2021/12/05 16:35:51;;;;;;;20.48;13.35;;;;;;;;;;5054891;28;20059;-75
2021/12/05 16:38:22;;;;;;;21.27;14.00;;;;;;;;;;5035230;28;20476;-76
2021/12/05 16:40:56;;;;;;;22.70;13.52;;;;;;;;;;5002625;28;20041;-76
2021/12/05 16:43:23;;;;;;;21.75;13.98;;;;;;;;;;5042359;28;20545;-75
2021/12/05 16:45:49;;;;;;;22.30;14.07;;;;;;;;;;5054872;28;20122;-77
2021/12/05 16:48:18;;;;;;;20.83;13.85;;;;;;;;;;5046655;28;20473;-76
2021/12/05 16:50:45;;;;;;;21.00;14.00;;;;;;;;;;5053064;28;20087;-76
2021/12/05 16:53:13;;;;;;;24.45;14.75;;;;;;;;;;5050448;28;20041;-77
2021/12/05 16:55:44;;;;;;;21.20;13.80;;;;;;;;;;5036358;28;20137;-77
2021/12/05 16:58:17;;;;;;;20.23;13.57;;;;;;;;;;5051555;28;20046;-78
2021/12/05 17:00:45;;;;;;;18.95;13.70;;;;;;;;;;5035401;28;20053;-77
2021/12/05 17:03:17;;;;;;;17.35;12.63;;;;;;;;;;5034641;28;20069;-78
2021/12/05 17:05:45;;;;;;;18.05;13.60;;;;;;;;;;5034975;28;20046;-77
2021/12/05 17:08:14;;;;;;;21.17;13.20;;;;;;;;;;5035028;28;20362;-78
2021/12/05 17:10:46;;;;;;;21.17;12.85;;;;;;;;;;5037102;28;20120;-77
2021/12/05 17:13:12;;;;;;;23.92;13.32;;;;;;;;;;5034801;28;20080;-77
2021/12/05 17:15:44;;;;;;;22.75;13.98;;;;;;;;;;5035414;28;20118;-76
2021/12/05 17:18:15;;;;;;;21.48;13.48;;;;;;;;;;5035704;28;20440;-76
2021/12/05 17:20:53;;;;;;;21.38;13.80;;;;;;;;;;5035140;28;20085;-76
2021/12/05 17:23:21;;;;;;;22.88;13.98;;;;;;;;;;5035043;28;20412;-77
2021/12/05 17:25:50;;;;;;;19.75;13.25;;;;;;;;;;5037944;28;20045;-77
2021/12/05 17:28:18;;;;;;;21.95;13.25;;;;;;;;;;5055737;28;20048;-77
2021/12/05 17:30:51;;;;;;;21.65;13.15;;;;;;;;;;5053221;28;20064;-78
2021/12/05 17:33:33;;;;;;;18.95;12.63;;;;;;;;;;5036884;28;20130;-76
2021/12/05 17:36:12;;;;;;;18.20;12.13;;;;;;;;;;5035448;28;20041;-77
2021/12/05 17:38:38;;;;;;;18.45;12.75;;;;;;;;;;5033738;28;20144;-76
2021/12/05 17:41:04;;;;;;;19.20;13.02;;;;;;;;;;5039597;28;20045;-77
2021/12/05 17:43:31;;;;;;;19.48;12.18;;;;;;;;;;5034405;28;20136;-76
2021/12/05 17:45:57;;;;;;;16.95;13.02;;;;;;;;;;5037440;28;20080;-77
2021/12/05 17:48:24;;;;;;;20.00;12.93;;;;;;;;;;5035370;28;20107;-77
2021/12/05 17:50:53;;;;;;;19.52;12.48;;;;;;;;;;5035328;28;20318;-77
2021/12/05 17:53:28;;;;;;;18.45;12.40;;;;;;;;;;5037662;28;20143;-78
2021/12/05 17:56:00;;;;;;;18.83;12.65;;;;;;;;;;5035211;28;20075;-76
2021/12/05 18:04:06;;;;;;;17.98;12.07;;;;;;;;;;5034682;28;20045;-87
2021/12/05 18:06:32;;;;;;;20.23;13.00;;;;;;;;;;5046654;28;20114;-77
2021/12/05 18:08:58;;;;;;;21.02;12.80;;;;;;;;;;5044006;28;20040;-78
2021/12/05 18:11:25;;;;;;;16.77;12.32;;;;;;;;;;5055166;28;20365;-77
2021/12/05 18:13:56;;;;;;;20.42;12.50;;;;;;;;;;5054129;28;20120;-77
2021/12/05 18:16:23;;;;;;;18.70;12.55;;;;;;;;;;5038016;28;20128;-77
2021/12/05 18:19:10;;;;;;;18.98;13.23;;;;;;;;;;5054285;28;20060;-76
2021/12/05 18:21:38;;;;;;;18.52;12.75;;;;;;;;;;5045915;28;20049;-76
2021/12/05 18:24:06;;;;;;;17.80;12.40;;;;;;;;;;5033983;28;20045;-78
2021/12/05 18:26:32;;;;;;;17.48;12.50;;;;;;;;;;5045015;28;20061;-77
2021/12/05 18:28:59;;;;;;;17.98;12.32;;;;;;;;;;5053789;28;20053;-77
2021/12/05 18:31:26;;;;;;;17.85;12.95;;;;;;;;;;5037639;28;20056;-78
2021/12/05 18:33:56;;;;;;;17.08;12.13;;;;;;;;;;5049977;28;20045;-78
2021/12/05 18:36:24;;;;;;;17.20;12.25;;;;;;;;;;5045904;28;20472;-77
2021/12/05 18:38:51;;;;;;;16.42;12.38;;;;;;;;;;5045961;28;20038;-79
2021/12/05 18:41:20;;;;;;;19.33;12.77;;;;;;;;;;5022963;28;20052;-78
2021/12/05 18:43:47;;;;;;;16.85;12.63;;;;;;;;;;5037231;28;20061;-77
2021/12/05 18:46:15;;;;;;;20.50;11.88;;;;;;;;;;5017526;28;20052;-76
2021/12/05 18:48:42;;;;;;;20.60;13.35;;;;;;;;;;5022697;28;20474;-78
2021/12/05 18:51:09;;;;;;;20.48;14.25;;;;;;;;;;5052614;28;20037;-78
2021/12/05 18:53:35;;;;;;;21.05;14.48;;;;;;;;;;5017151;28;20041;-77
2021/12/05 18:56:01;;;;;;;18.30;13.63;;;;;;;;;;5048635;28;20068;-77
2021/12/05 18:58:27;;;;;;;19.55;14.13;;;;;;;;;;5027793;28;20052;-77
2021/12/05 19:06:40;;;;;;;19.70;13.85;;;;;;;;;;5026505;28;20045;-77
2021/12/05 19:09:19;;;;;;;22.70;15.07;;;;;;;;;;5011694;28;20354;-78
2021/12/05 19:11:48;;;;;;;21.13;14.05;;;;;;;;;;5005367;28;20030;-77
2021/12/05 19:14:14;;;;;;;20.45;14.07;;;;;;;;;;5036039;28;20063;-77
2021/12/05 19:16:41;;;;;;;21.08;13.75;;;;;;;;;;5015614;28;20451;-77
2021/12/05 19:19:08;;;;;;;19.98;13.88;;;;;;;;;;5031404;28;20045;-77
2021/12/05 19:21:35;;;;;;;21.05;14.13;;;;;;;;;;5014371;28;20122;-77
2021/12/05 19:24:01;;;;;;;20.48;13.98;;;;;;;;;;5021226;28;20372;-78
2021/12/05 19:26:28;;;;;;;19.50;14.07;;;;;;;;;;5044726;28;20046;-76
2021/12/05 19:28:54;;;;;;;18.50;13.23;;;;;;;;;;5016153;28;20365;-76
2021/12/05 19:31:20;;;;;;;18.40;12.82;;;;;;;;;;5043654;28;20059;-79
2021/12/05 19:33:47;;;;;;;19.23;13.30;;;;;;;;;;5025217;28;20428;-76
2021/12/05 19:36:14;;;;;;;18.15;12.95;;;;;;;;;;5033712;28;20042;-77
2021/12/05 19:38:41;;;;;;;16.55;12.65;;;;;;;;;;5000101;28;20046;-78
2021/12/05 19:41:07;;;;;;;19.60;13.75;;;;;;;;;;5026140;28;20045;-77
2021/12/05 19:43:34;;;;;;;16.90;12.05;;;;;;;;;;5045172;28;20060;-76
2021/12/05 19:46:01;;;;;;;19.17;13.35;;;;;;;;;;5036186;28;20049;-77
2021/12/05 19:48:28;;;;;;;16.92;12.48;;;;;;;;;;5033192;28;20041;-77
2021/12/05 19:50:54;;;;;;;16.83;12.07;;;;;;;;;;5036352;28;20457;-77
2021/12/05 19:53:20;;;;;;;18.45;13.48;;;;;;;;;;5033242;28;20144;-77
2021/12/05 19:55:47;;;;;;;17.00;12.52;;;;;;;;;;5016393;28;20045;-77
2021/12/05 19:58:13;;;;;;;16.35;12.50;;;;;;;;;;5040867;28;20187;-77
2021/12/05 20:00:40;;;;;;;17.48;12.40;;;;;;;;;;5033994;28;20331;-77
2021/12/05 20:03:07;;;;;;;16.23;12.07;;;;;;;;;;5033368;28;20093;-77
2021/12/05 20:05:34;;;;;;;16.80;12.27;;;;;;;;;;5032202;28;20041;-77
2021/12/05 20:08:01;;;;;;;17.08;12.80;;;;;;;;;;5034346;28;20056;-77
2021/12/05 20:10:29;;;;;;;18.70;12.57;;;;;;;;;;5041360;28;20037;-77
2021/12/05 20:12:56;;;;;;;18.98;13.13;;;;;;;;;;5032342;28;20045;-77